sensor_id;sensor_type;location;lat;lon;timestamp;P1;durP1;ratioP1;P2;durP2;ratioP2
42192;SDS011;52467;40.114;18.306;2023-06-10T00:02:11;10.18;;;5.00;;
42192;SDS011;52467;40.114;18.306;2023-06-10T00:04:38;10.87;;;4.53;;
42192;SDS011;52467;40.114;18.306;2023-06-10T00:07:06;9.25;;;5.05;;
42192;SDS011;52467;40.114;18.306;2023-06-10T00:09:35;11.50;;;5.30;;
42192;SDS011;52467;40.114;18.306;2023-06-10T00:12:07;14.70;;;5.18;;
42192;SDS011;52467;40.114;18.306;2023-06-10T00:14:38;13.70;;;5.93;;
42192;SDS011;52467;40.114;18.306;2023-06-10T00:17:07;10.57;;;5.40;;
42192;SDS011;52467;40.114;18.306;2023-06-10T00:19:37;8.93;;;5.47;;
42192;SDS011;52467;40.114;18.306;2023-06-10T00:22:09;9.75;;;5.55;;
42192;SDS011;52467;40.114;18.306;2023-06-10T00:24:37;11.60;;;5.65;;
42192;SDS011;52467;40.114;18.306;2023-06-10T00:27:06;9.40;;;5.03;;
42192;SDS011;52467;40.114;18.306;2023-06-10T00:29:34;9.43;;;5.00;;
42192;SDS011;52467;40.114;18.306;2023-06-10T00:32:01;11.23;;;5.03;;
42192;SDS011;52467;40.114;18.306;2023-06-10T00:34:29;10.55;;;5.35;;
42192;SDS011;52467;40.114;18.306;2023-06-10T00:36:57;10.70;;;5.07;;
42192;SDS011;52467;40.114;18.306;2023-06-10T00:39:25;9.93;;;5.30;;
42192;SDS011;52467;40.114;18.306;2023-06-10T00:41:52;10.75;;;5.45;;
42192;SDS011;52467;40.114;18.306;2023-06-10T00:44:20;10.02;;;5.50;;
42192;SDS011;52467;40.114;18.306;2023-06-10T00:46:47;14.00;;;5.22;;
42192;SDS011;52467;40.114;18.306;2023-06-10T00:49:18;10.13;;;5.20;;
42192;SDS011;52467;40.114;18.306;2023-06-10T00:51:45;14.20;;;5.77;;
42192;SDS011;52467;40.114;18.306;2023-06-10T00:54:14;12.38;;;5.70;;
42192;SDS011;52467;40.114;18.306;2023-06-10T00:56:41;11.88;;;5.20;;
42192;SDS011;52467;40.114;18.306;2023-06-10T00:59:09;10.73;;;5.47;;
42192;SDS011;52467;40.114;18.306;2023-06-10T01:01:37;13.32;;;5.25;;
42192;SDS011;52467;40.114;18.306;2023-06-10T01:04:06;10.52;;;5.30;;
42192;SDS011;52467;40.114;18.306;2023-06-10T01:06:48;11.55;;;5.03;;
42192;SDS011;52467;40.114;18.306;2023-06-10T01:09:49;12.43;;;5.30;;
42192;SDS011;52467;40.114;18.306;2023-06-10T01:12:29;10.65;;;5.10;;
42192;SDS011;52467;40.114;18.306;2023-06-10T01:15:02;12.83;;;5.50;;
42192;SDS011;52467;40.114;18.306;2023-06-10T01:17:31;10.52;;;5.28;;
42192;SDS011;52467;40.114;18.306;2023-06-10T01:19:58;11.77;;;5.75;;
42192;SDS011;52467;40.114;18.306;2023-06-10T01:22:28;10.57;;;5.40;;
42192;SDS011;52467;40.114;18.306;2023-06-10T01:24:58;11.13;;;5.45;;
42192;SDS011;52467;40.114;18.306;2023-06-10T01:27:28;10.43;;;5.70;;
42192;SDS011;52467;40.114;18.306;2023-06-10T01:29:58;10.90;;;5.80;;
42192;SDS011;52467;40.114;18.306;2023-06-10T01:32:47;16.50;;;6.60;;
42192;SDS011;52467;40.114;18.306;2023-06-10T01:35:17;13.20;;;6.60;;
42192;SDS011;52467;40.114;18.306;2023-06-10T01:37:47;13.88;;;6.40;;
42192;SDS011;52467;40.114;18.306;2023-06-10T01:40:16;13.93;;;6.03;;
42192;SDS011;52467;40.114;18.306;2023-06-10T01:42:43;13.30;;;6.32;;
42192;SDS011;52467;40.114;18.306;2023-06-10T01:45:12;12.45;;;6.63;;
42192;SDS011;52467;40.114;18.306;2023-06-10T01:47:39;12.60;;;6.45;;
42192;SDS011;52467;40.114;18.306;2023-06-10T01:50:07;10.48;;;5.88;;
42192;SDS011;52467;40.114;18.306;2023-06-10T01:52:35;11.88;;;5.43;;
42192;SDS011;52467;40.114;18.306;2023-06-10T01:55:03;13.20;;;5.45;;
42192;SDS011;52467;40.114;18.306;2023-06-10T01:57:30;9.35;;;4.93;;
42192;SDS011;52467;40.114;18.306;2023-06-10T01:59:58;11.55;;;5.25;;
42192;SDS011;52467;40.114;18.306;2023-06-10T02:02:25;10.17;;;5.10;;
42192;SDS011;52467;40.114;18.306;2023-06-10T02:04:53;9.98;;;5.18;;
42192;SDS011;52467;40.114;18.306;2023-06-10T02:07:20;10.48;;;4.95;;
42192;SDS011;52467;40.114;18.306;2023-06-10T02:09:48;10.47;;;4.83;;
42192;SDS011;52467;40.114;18.306;2023-06-10T02:12:15;14.20;;;5.10;;
42192;SDS011;52467;40.114;18.306;2023-06-10T02:14:43;10.60;;;5.20;;
42192;SDS011;52467;40.114;18.306;2023-06-10T02:17:11;9.75;;;5.00;;
42192;SDS011;52467;40.114;18.306;2023-06-10T02:19:41;9.63;;;4.90;;
42192;SDS011;52467;40.114;18.306;2023-06-10T02:22:09;10.80;;;5.00;;
42192;SDS011;52467;40.114;18.306;2023-06-10T02:24:37;10.35;;;4.85;;
42192;SDS011;52467;40.114;18.306;2023-06-10T02:27:04;9.40;;;5.07;;
42192;SDS011;52467;40.114;18.306;2023-06-10T02:29:35;10.00;;;5.40;;
42192;SDS011;52467;40.114;18.306;2023-06-10T02:32:03;9.82;;;5.53;;
42192;SDS011;52467;40.114;18.306;2023-06-10T02:34:32;9.98;;;5.25;;
42192;SDS011;52467;40.114;18.306;2023-06-10T02:37:00;8.20;;;4.55;;
42192;SDS011;52467;40.114;18.306;2023-06-10T02:39:29;10.80;;;5.10;;
42192;SDS011;52467;40.114;18.306;2023-06-10T02:41:58;7.15;;;4.88;;
42192;SDS011;52467;40.114;18.306;2023-06-10T02:44:25;10.82;;;5.30;;
42192;SDS011;52467;40.114;18.306;2023-06-10T02:46:53;11.55;;;5.00;;
42192;SDS011;52467;40.114;18.306;2023-06-10T02:49:20;11.15;;;5.00;;
42192;SDS011;52467;40.114;18.306;2023-06-10T02:51:48;11.45;;;5.90;;
42192;SDS011;52467;40.114;18.306;2023-06-10T02:54:20;11.98;;;5.15;;
42192;SDS011;52467;40.114;18.306;2023-06-10T02:56:48;10.65;;;5.28;;
42192;SDS011;52467;40.114;18.306;2023-06-10T02:59:20;12.40;;;5.55;;
42192;SDS011;52467;40.114;18.306;2023-06-10T03:01:47;13.03;;;5.03;;
42192;SDS011;52467;40.114;18.306;2023-06-10T03:04:15;12.52;;;4.78;;
42192;SDS011;52467;40.114;18.306;2023-06-10T03:06:51;9.60;;;4.87;;
42192;SDS011;52467;40.114;18.306;2023-06-10T03:09:27;9.38;;;5.40;;
42192;SDS011;52467;40.114;18.306;2023-06-10T03:11:57;10.23;;;5.47;;
42192;SDS011;52467;40.114;18.306;2023-06-10T03:14:25;11.20;;;5.30;;
42192;SDS011;52467;40.114;18.306;2023-06-10T03:16:52;10.48;;;5.90;;
42192;SDS011;52467;40.114;18.306;2023-06-10T03:19:22;9.05;;;5.25;;
42192;SDS011;52467;40.114;18.306;2023-06-10T03:22:07;8.70;;;4.75;;
42192;SDS011;52467;40.114;18.306;2023-06-10T03:24:38;9.05;;;4.88;;
42192;SDS011;52467;40.114;18.306;2023-06-10T03:27:12;11.75;;;4.80;;
42192;SDS011;52467;40.114;18.306;2023-06-10T03:29:42;10.50;;;5.03;;
42192;SDS011;52467;40.114;18.306;2023-06-10T03:32:10;13.05;;;5.05;;
42192;SDS011;52467;40.114;18.306;2023-06-10T03:34:39;9.20;;;5.15;;
42192;SDS011;52467;40.114;18.306;2023-06-10T03:37:08;8.07;;;4.75;;
42192;SDS011;52467;40.114;18.306;2023-06-10T03:39:36;9.57;;;4.57;;
42192;SDS011;52467;40.114;18.306;2023-06-10T03:42:04;7.60;;;4.20;;
42192;SDS011;52467;40.114;18.306;2023-06-10T03:44:32;9.13;;;4.60;;
42192;SDS011;52467;40.114;18.306;2023-06-10T03:47:00;9.35;;;4.70;;
42192;SDS011;52467;40.114;18.306;2023-06-10T03:49:28;7.78;;;4.10;;
42192;SDS011;52467;40.114;18.306;2023-06-10T03:51:59;7.22;;;4.65;;
42192;SDS011;52467;40.114;18.306;2023-06-10T03:54:26;10.98;;;4.47;;
42192;SDS011;52467;40.114;18.306;2023-06-10T03:56:54;11.68;;;4.30;;
42192;SDS011;52467;40.114;18.306;2023-06-10T03:59:22;8.93;;;3.95;;
42192;SDS011;52467;40.114;18.306;2023-06-10T04:01:49;7.72;;;4.10;;
42192;SDS011;52467;40.114;18.306;2023-06-10T04:04:17;8.82;;;4.50;;
42192;SDS011;52467;40.114;18.306;2023-06-10T04:06:45;9.27;;;4.47;;
42192;SDS011;52467;40.114;18.306;2023-06-10T04:09:14;8.25;;;3.97;;
42192;SDS011;52467;40.114;18.306;2023-06-10T04:11:42;10.50;;;5.40;;
42192;SDS011;52467;40.114;18.306;2023-06-10T04:14:10;13.18;;;6.00;;
42192;SDS011;52467;40.114;18.306;2023-06-10T04:16:39;18.03;;;8.57;;
42192;SDS011;52467;40.114;18.306;2023-06-10T04:19:07;141.73;;;49.00;;
42192;SDS011;52467;40.114;18.306;2023-06-10T04:21:35;104.22;;;40.13;;
42192;SDS011;52467;40.114;18.306;2023-06-10T04:24:02;103.88;;;39.63;;
42192;SDS011;52467;40.114;18.306;2023-06-10T04:26:31;99.43;;;38.38;;
42192;SDS011;52467;40.114;18.306;2023-06-10T04:29:00;80.90;;;32.10;;
42192;SDS011;52467;40.114;18.306;2023-06-10T04:31:28;66.10;;;25.60;;
42192;SDS011;52467;40.114;18.306;2023-06-10T04:33:56;52.80;;;22.45;;
42192;SDS011;52467;40.114;18.306;2023-06-10T04:36:24;46.30;;;20.98;;
42192;SDS011;52467;40.114;18.306;2023-06-10T04:38:51;41.40;;;18.30;;
42192;SDS011;52467;40.114;18.306;2023-06-10T04:41:20;31.85;;;14.82;;
42192;SDS011;52467;40.114;18.306;2023-06-10T04:43:49;28.60;;;14.50;;
42192;SDS011;52467;40.114;18.306;2023-06-10T04:46:17;26.20;;;12.95;;
42192;SDS011;52467;40.114;18.306;2023-06-10T04:48:44;37.60;;;16.40;;
42192;SDS011;52467;40.114;18.306;2023-06-10T04:51:13;31.00;;;14.20;;
42192;SDS011;52467;40.114;18.306;2023-06-10T04:53:41;31.17;;;13.48;;
42192;SDS011;52467;40.114;18.306;2023-06-10T04:56:08;26.40;;;12.77;;
42192;SDS011;52467;40.114;18.306;2023-06-10T04:58:35;26.45;;;12.52;;
42192;SDS011;52467;40.114;18.306;2023-06-10T05:01:03;25.20;;;11.63;;
42192;SDS011;52467;40.114;18.306;2023-06-10T05:03:30;22.03;;;10.63;;
42192;SDS011;52467;40.114;18.306;2023-06-10T05:05:58;23.63;;;10.30;;
42192;SDS011;52467;40.114;18.306;2023-06-10T05:08:25;21.15;;;10.90;;
42192;SDS011;52467;40.114;18.306;2023-06-10T05:10:52;22.65;;;10.35;;
42192;SDS011;52467;40.114;18.306;2023-06-10T05:13:20;19.60;;;9.30;;
42192;SDS011;52467;40.114;18.306;2023-06-10T05:15:47;20.33;;;9.05;;
42192;SDS011;52467;40.114;18.306;2023-06-10T05:18:14;14.70;;;7.60;;
42192;SDS011;52467;40.114;18.306;2023-06-10T05:20:42;16.23;;;7.63;;
42192;SDS011;52467;40.114;18.306;2023-06-10T05:23:09;13.73;;;6.60;;
42192;SDS011;52467;40.114;18.306;2023-06-10T05:25:37;12.90;;;6.00;;
42192;SDS011;52467;40.114;18.306;2023-06-10T05:28:04;9.50;;;4.70;;
42192;SDS011;52467;40.114;18.306;2023-06-10T05:30:33;10.57;;;5.00;;
42192;SDS011;52467;40.114;18.306;2023-06-10T05:33:00;11.35;;;4.85;;
42192;SDS011;52467;40.114;18.306;2023-06-10T05:35:27;9.27;;;4.57;;
42192;SDS011;52467;40.114;18.306;2023-06-10T05:37:55;12.10;;;4.25;;
42192;SDS011;52467;40.114;18.306;2023-06-10T05:40:22;7.43;;;3.78;;
42192;SDS011;52467;40.114;18.306;2023-06-10T05:42:50;9.60;;;4.30;;
42192;SDS011;52467;40.114;18.306;2023-06-10T05:45:17;8.13;;;3.90;;
42192;SDS011;52467;40.114;18.306;2023-06-10T05:47:45;9.00;;;4.05;;
42192;SDS011;52467;40.114;18.306;2023-06-10T05:50:12;7.63;;;3.40;;
42192;SDS011;52467;40.114;18.306;2023-06-10T05:52:39;5.32;;;2.92;;
42192;SDS011;52467;40.114;18.306;2023-06-10T05:55:07;6.72;;;3.22;;
42192;SDS011;52467;40.114;18.306;2023-06-10T05:57:35;7.30;;;3.17;;
42192;SDS011;52467;40.114;18.306;2023-06-10T06:00:03;7.45;;;3.17;;
42192;SDS011;52467;40.114;18.306;2023-06-10T06:02:38;6.43;;;2.92;;
42192;SDS011;52467;40.114;18.306;2023-06-10T06:05:05;4.88;;;3.20;;
42192;SDS011;52467;40.114;18.306;2023-06-10T06:07:33;6.63;;;2.83;;
42192;SDS011;52467;40.114;18.306;2023-06-10T06:10:00;5.30;;;3.00;;
42192;SDS011;52467;40.114;18.306;2023-06-10T06:12:27;6.28;;;2.58;;
42192;SDS011;52467;40.114;18.306;2023-06-10T06:14:54;6.82;;;2.50;;
42192;SDS011;52467;40.114;18.306;2023-06-10T06:17:22;6.35;;;2.80;;
42192;SDS011;52467;40.114;18.306;2023-06-10T06:19:49;9.40;;;3.00;;
42192;SDS011;52467;40.114;18.306;2023-06-10T06:22:16;7.05;;;2.75;;
42192;SDS011;52467;40.114;18.306;2023-06-10T06:24:48;4.90;;;2.43;;
42192;SDS011;52467;40.114;18.306;2023-06-10T06:27:16;5.43;;;2.50;;
42192;SDS011;52467;40.114;18.306;2023-06-10T06:29:43;5.23;;;2.67;;
42192;SDS011;52467;40.114;18.306;2023-06-10T06:32:11;6.90;;;2.35;;
42192;SDS011;52467;40.114;18.306;2023-06-10T06:34:38;5.57;;;2.70;;
42192;SDS011;52467;40.114;18.306;2023-06-10T06:37:05;8.13;;;2.67;;
42192;SDS011;52467;40.114;18.306;2023-06-10T06:39:36;6.63;;;2.28;;
42192;SDS011;52467;40.114;18.306;2023-06-10T06:42:03;5.75;;;2.30;;
42192;SDS011;52467;40.114;18.306;2023-06-10T06:44:50;5.85;;;2.08;;
42192;SDS011;52467;40.114;18.306;2023-06-10T06:47:18;5.13;;;2.10;;
42192;SDS011;52467;40.114;18.306;2023-06-10T06:49:46;4.38;;;2.00;;
42192;SDS011;52467;40.114;18.306;2023-06-10T06:52:16;5.68;;;2.17;;
42192;SDS011;52467;40.114;18.306;2023-06-10T06:54:44;5.85;;;2.35;;
42192;SDS011;52467;40.114;18.306;2023-06-10T06:57:11;6.45;;;2.30;;
42192;SDS011;52467;40.114;18.306;2023-06-10T06:59:39;4.20;;;1.90;;
42192;SDS011;52467;40.114;18.306;2023-06-10T07:02:07;4.10;;;2.10;;
42192;SDS011;52467;40.114;18.306;2023-06-10T07:04:34;3.40;;;1.75;;
42192;SDS011;52467;40.114;18.306;2023-06-10T07:07:02;3.65;;;1.90;;
42192;SDS011;52467;40.114;18.306;2023-06-10T07:09:31;4.55;;;1.90;;
42192;SDS011;52467;40.114;18.306;2023-06-10T07:11:58;4.40;;;2.08;;
42192;SDS011;52467;40.114;18.306;2023-06-10T07:14:26;12.05;;;2.08;;
42192;SDS011;52467;40.114;18.306;2023-06-10T07:16:54;4.60;;;2.10;;
42192;SDS011;52467;40.114;18.306;2023-06-10T07:19:22;4.93;;;1.95;;
42192;SDS011;52467;40.114;18.306;2023-06-10T07:21:50;5.50;;;2.20;;
42192;SDS011;52467;40.114;18.306;2023-06-10T07:24:17;5.00;;;1.87;;
42192;SDS011;52467;40.114;18.306;2023-06-10T07:26:46;2.92;;;1.50;;
42192;SDS011;52467;40.114;18.306;2023-06-10T07:29:14;3.75;;;1.70;;
42192;SDS011;52467;40.114;18.306;2023-06-10T07:31:42;3.58;;;1.73;;
42192;SDS011;52467;40.114;18.306;2023-06-10T07:34:09;4.50;;;1.90;;
42192;SDS011;52467;40.114;18.306;2023-06-10T07:36:37;5.13;;;1.98;;
42192;SDS011;52467;40.114;18.306;2023-06-10T07:39:04;4.47;;;2.13;;
42192;SDS011;52467;40.114;18.306;2023-06-10T07:41:32;6.13;;;1.98;;
42192;SDS011;52467;40.114;18.306;2023-06-10T07:44:00;3.08;;;1.98;;
42192;SDS011;52467;40.114;18.306;2023-06-10T07:46:28;3.00;;;1.40;;
42192;SDS011;52467;40.114;18.306;2023-06-10T07:48:55;4.97;;;1.85;;
42192;SDS011;52467;40.114;18.306;2023-06-10T07:51:23;5.72;;;2.05;;
42192;SDS011;52467;40.114;18.306;2023-06-10T07:53:50;4.65;;;1.95;;
42192;SDS011;52467;40.114;18.306;2023-06-10T07:56:18;5.50;;;2.00;;
42192;SDS011;52467;40.114;18.306;2023-06-10T07:58:47;5.87;;;2.50;;
42192;SDS011;52467;40.114;18.306;2023-06-10T08:01:14;4.50;;;2.30;;
42192;SDS011;52467;40.114;18.306;2023-06-10T08:03:42;4.13;;;2.35;;
42192;SDS011;52467;40.114;18.306;2023-06-10T08:06:10;4.68;;;2.15;;
42192;SDS011;52467;40.114;18.306;2023-06-10T08:08:38;5.22;;;2.20;;
42192;SDS011;52467;40.114;18.306;2023-06-10T08:11:13;6.78;;;1.98;;
42192;SDS011;52467;40.114;18.306;2023-06-10T08:13:40;5.82;;;2.50;;
42192;SDS011;52467;40.114;18.306;2023-06-10T08:16:08;4.47;;;2.17;;
42192;SDS011;52467;40.114;18.306;2023-06-10T08:18:35;4.75;;;1.70;;
42192;SDS011;52467;40.114;18.306;2023-06-10T08:21:02;4.13;;;2.10;;
42192;SDS011;52467;40.114;18.306;2023-06-10T08:23:30;4.53;;;2.08;;
42192;SDS011;52467;40.114;18.306;2023-06-10T08:25:57;7.85;;;2.22;;
42192;SDS011;52467;40.114;18.306;2023-06-10T08:28:25;5.47;;;2.33;;
42192;SDS011;52467;40.114;18.306;2023-06-10T08:30:52;6.53;;;1.90;;
42192;SDS011;52467;40.114;18.306;2023-06-10T08:33:21;4.35;;;2.05;;
42192;SDS011;52467;40.114;18.306;2023-06-10T08:35:49;4.50;;;1.92;;
42192;SDS011;52467;40.114;18.306;2023-06-10T08:38:16;5.57;;;2.00;;
42192;SDS011;52467;40.114;18.306;2023-06-10T08:40:44;7.25;;;2.50;;
42192;SDS011;52467;40.114;18.306;2023-06-10T08:43:19;4.93;;;2.17;;
42192;SDS011;52467;40.114;18.306;2023-06-10T08:45:58;4.35;;;2.58;;
42192;SDS011;52467;40.114;18.306;2023-06-10T08:48:30;8.23;;;2.17;;
42192;SDS011;52467;40.114;18.306;2023-06-10T08:51:01;6.95;;;2.03;;
42192;SDS011;52467;40.114;18.306;2023-06-10T08:53:31;5.78;;;2.30;;
42192;SDS011;52467;40.114;18.306;2023-06-10T08:56:02;5.90;;;2.17;;
42192;SDS011;52467;40.114;18.306;2023-06-10T08:58:32;4.75;;;2.10;;
42192;SDS011;52467;40.114;18.306;2023-06-10T09:01:08;4.30;;;2.00;;
42192;SDS011;52467;40.114;18.306;2023-06-10T09:03:37;7.93;;;1.95;;
42192;SDS011;52467;40.114;18.306;2023-06-10T09:06:05;3.90;;;1.70;;
42192;SDS011;52467;40.114;18.306;2023-06-10T09:08:33;4.77;;;2.00;;
42192;SDS011;52467;40.114;18.306;2023-06-10T09:11:01;2.92;;;1.67;;
42192;SDS011;52467;40.114;18.306;2023-06-10T09:13:29;6.10;;;2.27;;
42192;SDS011;52467;40.114;18.306;2023-06-10T09:15:56;5.20;;;1.65;;
42192;SDS011;52467;40.114;18.306;2023-06-10T09:18:28;3.40;;;1.80;;
42192;SDS011;52467;40.114;18.306;2023-06-10T09:20:56;5.53;;;2.20;;
42192;SDS011;52467;40.114;18.306;2023-06-10T09:23:23;3.72;;;2.00;;
42192;SDS011;52467;40.114;18.306;2023-06-10T09:25:57;4.40;;;1.85;;
42192;SDS011;52467;40.114;18.306;2023-06-10T09:28:25;5.43;;;2.20;;
42192;SDS011;52467;40.114;18.306;2023-06-10T09:31:05;6.13;;;1.90;;
42192;SDS011;52467;40.114;18.306;2023-06-10T09:33:36;4.78;;;1.85;;
42192;SDS011;52467;40.114;18.306;2023-06-10T09:36:05;3.08;;;1.60;;
42192;SDS011;52467;40.114;18.306;2023-06-10T09:38:33;6.30;;;2.20;;
42192;SDS011;52467;40.114;18.306;2023-06-10T09:41:02;4.05;;;1.77;;
42192;SDS011;52467;40.114;18.306;2023-06-10T09:43:38;7.38;;;2.00;;
42192;SDS011;52467;40.114;18.306;2023-06-10T09:46:06;4.80;;;2.28;;
42192;SDS011;52467;40.114;18.306;2023-06-10T09:48:40;4.03;;;1.65;;
42192;SDS011;52467;40.114;18.306;2023-06-10T09:51:09;3.63;;;1.70;;
42192;SDS011;52467;40.114;18.306;2023-06-10T09:53:37;4.25;;;1.90;;
42192;SDS011;52467;40.114;18.306;2023-06-10T09:56:05;3.38;;;1.70;;
42192;SDS011;52467;40.114;18.306;2023-06-10T09:58:37;4.43;;;1.83;;
42192;SDS011;52467;40.114;18.306;2023-06-10T10:01:08;8.57;;;1.80;;
42192;SDS011;52467;40.114;18.306;2023-06-10T10:03:46;6.53;;;1.80;;
42192;SDS011;52467;40.114;18.306;2023-06-10T10:06:16;6.20;;;1.80;;
42192;SDS011;52467;40.114;18.306;2023-06-10T10:08:46;3.17;;;1.30;;
42192;SDS011;52467;40.114;18.306;2023-06-10T10:11:19;2.40;;;1.42;;
42192;SDS011;52467;40.114;18.306;2023-06-10T10:13:52;5.75;;;1.30;;
42192;SDS011;52467;40.114;18.306;2023-06-10T10:16:20;3.90;;;1.50;;
42192;SDS011;52467;40.114;18.306;2023-06-10T10:19:01;3.47;;;1.23;;
42192;SDS011;52467;40.114;18.306;2023-06-10T10:21:35;4.43;;;1.20;;
42192;SDS011;52467;40.114;18.306;2023-06-10T10:24:16;2.25;;;1.30;;
42192;SDS011;52467;40.114;18.306;2023-06-10T10:26:46;5.40;;;1.48;;
42192;SDS011;52467;40.114;18.306;2023-06-10T10:29:23;4.00;;;1.50;;
42192;SDS011;52467;40.114;18.306;2023-06-10T10:31:58;2.67;;;1.50;;
42192;SDS011;52467;40.114;18.306;2023-06-10T10:34:32;3.83;;;1.38;;
42192;SDS011;52467;40.114;18.306;2023-06-10T10:37:04;3.47;;;1.58;;
42192;SDS011;52467;40.114;18.306;2023-06-10T10:39:33;8.40;;;2.10;;
42192;SDS011;52467;40.114;18.306;2023-06-10T10:42:01;7.88;;;2.40;;
42192;SDS011;52467;40.114;18.306;2023-06-10T10:44:30;6.33;;;2.00;;
42192;SDS011;52467;40.114;18.306;2023-06-10T10:46:58;11.27;;;2.65;;
42192;SDS011;52467;40.114;18.306;2023-06-10T10:49:30;9.48;;;2.20;;
42192;SDS011;52467;40.114;18.306;2023-06-10T10:51:58;11.45;;;3.17;;
42192;SDS011;52467;40.114;18.306;2023-06-10T10:54:36;10.35;;;3.08;;
42192;SDS011;52467;40.114;18.306;2023-06-10T10:57:10;10.73;;;2.65;;
42192;SDS011;52467;40.114;18.306;2023-06-10T10:59:57;7.45;;;3.08;;
42192;SDS011;52467;40.114;18.306;2023-06-10T11:05:14;5.18;;;2.10;;
42192;SDS011;52467;40.114;18.306;2023-06-10T11:07:54;4.75;;;2.00;;
42192;SDS011;52467;40.114;18.306;2023-06-10T11:10:32;8.98;;;2.35;;
42192;SDS011;52467;40.114;18.306;2023-06-10T11:13:13;5.10;;;2.22;;
42192;SDS011;52467;40.114;18.306;2023-06-10T11:15:45;6.10;;;2.03;;
42192;SDS011;52467;40.114;18.306;2023-06-10T11:18:14;2.90;;;1.40;;
42192;SDS011;52467;40.114;18.306;2023-06-10T11:21:03;3.22;;;1.75;;
42192;SDS011;52467;40.114;18.306;2023-06-10T11:23:34;8.25;;;2.25;;
42192;SDS011;52467;40.114;18.306;2023-06-10T11:26:22;12.50;;;2.83;;
42192;SDS011;52467;40.114;18.306;2023-06-10T11:29:05;12.43;;;3.33;;
42192;SDS011;52467;40.114;18.306;2023-06-10T11:31:39;9.88;;;2.40;;
42192;SDS011;52467;40.114;18.306;2023-06-10T11:34:14;5.57;;;2.80;;
42192;SDS011;52467;40.114;18.306;2023-06-10T11:36:43;7.73;;;2.03;;
42192;SDS011;52467;40.114;18.306;2023-06-10T11:39:12;7.72;;;2.70;;
42192;SDS011;52467;40.114;18.306;2023-06-10T11:41:40;5.80;;;1.70;;
42192;SDS011;52467;40.114;18.306;2023-06-10T11:44:08;3.25;;;1.70;;
42192;SDS011;52467;40.114;18.306;2023-06-10T11:46:37;4.07;;;1.70;;
42192;SDS011;52467;40.114;18.306;2023-06-10T11:49:05;6.77;;;1.90;;
42192;SDS011;52467;40.114;18.306;2023-06-10T11:51:40;5.70;;;1.45;;
42192;SDS011;52467;40.114;18.306;2023-06-10T11:54:11;4.63;;;1.57;;
42192;SDS011;52467;40.114;18.306;2023-06-10T11:56:39;3.35;;;1.25;;
42192;SDS011;52467;40.114;18.306;2023-06-10T11:59:06;2.92;;;1.25;;
42192;SDS011;52467;40.114;18.306;2023-06-10T12:01:35;5.70;;;1.70;;
42192;SDS011;52467;40.114;18.306;2023-06-10T12:04:04;4.63;;;1.70;;
42192;SDS011;52467;40.114;18.306;2023-06-10T12:09:22;7.32;;;2.20;;
42192;SDS011;52467;40.114;18.306;2023-06-10T12:11:54;6.75;;;2.20;;
42192;SDS011;52467;40.114;18.306;2023-06-10T12:20:04;2.05;;;1.40;;
42192;SDS011;52467;40.114;18.306;2023-06-10T12:22:36;2.95;;;1.50;;
42192;SDS011;52467;40.114;18.306;2023-06-10T12:25:08;4.35;;;1.65;;
42192;SDS011;52467;40.114;18.306;2023-06-10T12:27:36;1.95;;;1.33;;
42192;SDS011;52467;40.114;18.306;2023-06-10T12:30:04;3.13;;;1.98;;
42192;SDS011;52467;40.114;18.306;2023-06-10T12:32:40;3.67;;;1.77;;
42192;SDS011;52467;40.114;18.306;2023-06-10T12:35:09;4.70;;;1.52;;
42192;SDS011;52467;40.114;18.306;2023-06-10T12:37:39;5.17;;;1.10;;
42192;SDS011;52467;40.114;18.306;2023-06-10T12:40:08;2.60;;;1.60;;
42192;SDS011;52467;40.114;18.306;2023-06-10T12:42:36;2.38;;;1.30;;
42192;SDS011;52467;40.114;18.306;2023-06-10T12:45:04;2.92;;;1.52;;
42192;SDS011;52467;40.114;18.306;2023-06-10T12:47:35;2.47;;;1.45;;
42192;SDS011;52467;40.114;18.306;2023-06-10T12:50:05;2.75;;;1.90;;
42192;SDS011;52467;40.114;18.306;2023-06-10T12:52:33;3.00;;;1.60;;
42192;SDS011;52467;40.114;18.306;2023-06-10T12:55:01;3.83;;;1.95;;
42192;SDS011;52467;40.114;18.306;2023-06-10T12:57:28;2.88;;;2.10;;
42192;SDS011;52467;40.114;18.306;2023-06-10T12:59:56;3.63;;;1.50;;
42192;SDS011;52467;40.114;18.306;2023-06-10T13:02:31;2.42;;;1.55;;
42192;SDS011;52467;40.114;18.306;2023-06-10T13:04:59;6.47;;;2.00;;
42192;SDS011;52467;40.114;18.306;2023-06-10T13:07:26;4.37;;;2.00;;
42192;SDS011;52467;40.114;18.306;2023-06-10T13:09:53;3.15;;;2.10;;
42192;SDS011;52467;40.114;18.306;2023-06-10T13:12:20;2.95;;;1.50;;
42192;SDS011;52467;40.114;18.306;2023-06-10T13:14:53;2.97;;;1.90;;
42192;SDS011;52467;40.114;18.306;2023-06-10T13:17:20;4.03;;;1.40;;
42192;SDS011;52467;40.114;18.306;2023-06-10T13:19:48;3.67;;;2.40;;
42192;SDS011;52467;40.114;18.306;2023-06-10T13:22:16;4.70;;;1.70;;
42192;SDS011;52467;40.114;18.306;2023-06-10T13:24:44;3.55;;;1.90;;
42192;SDS011;52467;40.114;18.306;2023-06-10T13:27:11;3.95;;;2.20;;
42192;SDS011;52467;40.114;18.306;2023-06-10T13:29:40;3.13;;;1.97;;
42192;SDS011;52467;40.114;18.306;2023-06-10T13:32:08;6.05;;;2.00;;
42192;SDS011;52467;40.114;18.306;2023-06-10T13:34:35;5.55;;;2.00;;
42192;SDS011;52467;40.114;18.306;2023-06-10T13:37:03;4.32;;;1.35;;
42192;SDS011;52467;40.114;18.306;2023-06-10T13:39:31;5.10;;;1.63;;
42192;SDS011;52467;40.114;18.306;2023-06-10T13:41:58;2.63;;;1.65;;
42192;SDS011;52467;40.114;18.306;2023-06-10T13:44:26;2.33;;;1.20;;
42192;SDS011;52467;40.114;18.306;2023-06-10T13:46:57;6.32;;;1.30;;
42192;SDS011;52467;40.114;18.306;2023-06-10T13:49:25;1.40;;;0.98;;
42192;SDS011;52467;40.114;18.306;2023-06-10T13:51:52;1.70;;;1.10;;
42192;SDS011;52467;40.114;18.306;2023-06-10T13:54:19;2.97;;;1.10;;
42192;SDS011;52467;40.114;18.306;2023-06-10T13:56:47;3.20;;;1.10;;
42192;SDS011;52467;40.114;18.306;2023-06-10T13:59:15;2.45;;;1.20;;
42192;SDS011;52467;40.114;18.306;2023-06-10T14:01:42;4.47;;;1.10;;
42192;SDS011;52467;40.114;18.306;2023-06-10T14:04:10;3.37;;;1.40;;
42192;SDS011;52467;40.114;18.306;2023-06-10T14:06:37;3.40;;;1.33;;
42192;SDS011;52467;40.114;18.306;2023-06-10T14:09:05;1.70;;;1.13;;
42192;SDS011;52467;40.114;18.306;2023-06-10T14:11:32;2.93;;;1.40;;
42192;SDS011;52467;40.114;18.306;2023-06-10T14:14:00;2.67;;;1.30;;
42192;SDS011;52467;40.114;18.306;2023-06-10T14:16:27;2.55;;;1.40;;
42192;SDS011;52467;40.114;18.306;2023-06-10T14:18:55;4.93;;;2.53;;
42192;SDS011;52467;40.114;18.306;2023-06-10T14:21:22;4.65;;;2.47;;
42192;SDS011;52467;40.114;18.306;2023-06-10T14:23:50;3.30;;;1.80;;
42192;SDS011;52467;40.114;18.306;2023-06-10T14:26:19;6.38;;;2.38;;
42192;SDS011;52467;40.114;18.306;2023-06-10T14:28:49;3.25;;;1.30;;
42192;SDS011;52467;40.114;18.306;2023-06-10T14:31:17;3.20;;;1.63;;
42192;SDS011;52467;40.114;18.306;2023-06-10T14:33:44;1.98;;;1.52;;
42192;SDS011;52467;40.114;18.306;2023-06-10T14:36:11;2.60;;;1.40;;
42192;SDS011;52467;40.114;18.306;2023-06-10T14:38:39;3.50;;;1.90;;
42192;SDS011;52467;40.114;18.306;2023-06-10T14:41:06;3.80;;;1.83;;
42192;SDS011;52467;40.114;18.306;2023-06-10T14:43:33;4.18;;;2.10;;
42192;SDS011;52467;40.114;18.306;2023-06-10T14:46:01;4.35;;;2.13;;
42192;SDS011;52467;40.114;18.306;2023-06-10T14:48:28;8.05;;;2.17;;
42192;SDS011;52467;40.114;18.306;2023-06-10T14:50:55;6.95;;;2.30;;
42192;SDS011;52467;40.114;18.306;2023-06-10T14:53:23;6.00;;;2.22;;